Latest Weather Observations for Pallamana

IDS60801

Issued at 11:31 pm CST Sunday 2 August 2015 (issued every 30 minutes, with the page automatically refreshed every 10 minutes)

About weather observations | Map of weather stations | Latest weather observations for SA | Other Formats
Station Details ID: 024584 Name: PALLAMANA AERODROME Lat: -35.06 Lon: 139.23 Height: 45.0 m
Data from the previous 72 hours. | See also: Recent months at Pallamana
Date/Time
CST
Temp
°C
App
Temp
°C
Dew
Point
Rel
Hum
%
Delta-T
°C
Wind Press
QNH
hPa
Press
MSL
hPa
Rain
since 9 am
mm
Dir
 
Spd
km/h
Gust
km/h
Spd
kts
Gust
kts
02/11:30pm 9.9 6.5 6.0 77 1.8 WSW 13 17 7 9 1021.4 1021.4 0.0
02/11:00pm 9.5 6.7 5.3 75 1.9 W 9 13 5 7 1021.5 1021.5 0.0
02/10:30pm 9.7 6.1 4.8 71 2.2 W 13 15 7 8 1021.7 1021.8 0.0
02/10:00pm 10.5 6.4 4.5 66 2.7 W 15 19 8 10 1021.7 1021.8 0.0
02/09:30pm 10.6 6.4 3.8 63 3.0 W 15 20 8 11 1021.7 1021.8 0.0
02/09:00pm 10.6 5.7 4.1 64 2.9 WSW 19 24 10 13 1021.6 1021.6 0.0
02/08:30pm 11.5 5.4 4.9 64 3.0 WSW 26 39 14 21 1021.4 1021.4 0.0
02/08:00pm 11.6 5.3 5.8 67 2.7 WSW 28 41 15 22 1021.0 1021.0 0.0
02/07:59pm 11.5 5.2 5.9 68 2.6 WSW 28 41 15 22 1021.1 1021.1 0.0
02/07:30pm 11.3 7.0 6.9 74 2.1 W 19 22 10 12 1020.9 1020.9 0.0
02/07:00pm 11.5 6.9 6.6 72 2.3 W 20 28 11 15 1020.6 1020.6 0.0
02/06:30pm 11.6 7.6 6.8 72 2.3 W 17 26 9 14 1020.3 1020.3 0.0
02/06:00pm 11.4 7.6 6.0 69 2.5 W 15 20 8 11 1020.1 1020.1 0.0
02/05:30pm 12.2 6.8 6.3 67 2.8 W 24 35 13 19 1019.7 1019.7 0.0
02/05:00pm 13.0 7.3 6.7 65 3.0 W 26 39 14 21 1019.5 1019.5 0.0
02/04:30pm 13.2 7.8 6.3 63 3.3 W 24 33 13 18 1019.3 1019.3 0.0
02/04:00pm 13.7 6.9 5.1 56 4.0 W 30 41 16 22 1019.2 1019.2 0.0
02/03:30pm 14.0 8.3 6.5 60 3.6 W 26 39 14 21 1019.1 1019.1 0.0
02/03:12pm 13.7 6.8 6.4 61 3.5 W 32 50 17 27 1018.9 1018.9 0.0
02/03:00pm 13.6 6.7 6.5 62 3.4 W 32 43 17 23 1018.8 1018.8 0.0
02/02:41pm 13.6 6.6 6.0 60 3.6 W 32 50 17 27 1018.7 1018.7 0.0
02/02:30pm 14.4 7.2 5.8 56 4.1 W 33 44 18 24 1018.7 1018.7 0.0
02/02:20pm 13.8 7.5 5.5 57 3.9 W 28 46 15 25 1018.8 1018.8 0.0
02/02:00pm 14.0 7.8 6.3 60 3.7 W 28 44 15 24 1018.7 1018.7 0.0
02/01:30pm 12.5 5.7 7.1 69 2.6 W 32 46 17 25 1019.0 1019.0 0.0
02/01:08pm 13.4 7.1 5.8 60 3.6 W 28 46 15 25 1018.9 1018.9 0.0
02/01:00pm 13.9 7.3 5.9 58 3.8 W 30 43 16 23 1019.0 1019.0 0.0
02/12:30pm 13.6 6.4 6.0 60 3.6 W 33 44 18 24 1019.2 1019.2 0.0
02/12:00pm 12.4 5.7 7.5 72 2.4 W 32 43 17 23 1019.5 1019.5 0.0
02/11:33am 12.5 6.0 6.4 66 2.9 W 30 48 16 26 1019.6 1019.6 0.0
02/11:30am 12.3 6.1 6.1 66 2.9 W 28 39 15 21 1019.6 1019.6 0.0
02/11:00am 12.7 6.8 5.6 62 3.3 W 26 39 14 21 1019.7 1019.7 0.0
02/10:30am 12.1 5.7 5.4 63 3.1 W 28 37 15 20 1019.8 1019.8 0.0
02/10:00am 11.8 6.3 5.8 66 2.8 W 24 33 13 18 1019.7 1019.7 0.0
02/09:30am 11.4 7.2 5.8 68 2.6 W 17 26 9 14 1019.7 1019.7 0.0
02/09:00am 10.5 8.0 6.4 76 1.9 WNW 9 17 5 9 1019.6 1019.6 8.0
02/08:30am 9.1 6.1 6.0 81 1.4 WNW 11 17 6 9 1019.5 1019.5 8.0
02/08:00am 7.3 4.1 5.0 85 1.0 WNW 11 15 6 8 1019.3 1019.3 8.0
02/07:30am 5.6 2.1 3.7 87 0.8 WNW 11 13 6 7 1019.1 1019.1 8.0
02/07:00am 6.7 2.9 4.1 83 1.1 WNW 13 15 7 8 1018.8 1018.8 8.0
02/06:30am 6.4 3.0 4.1 85 1.0 NW 11 15 6 8 1018.4 1018.4 8.0
02/06:00am 6.2 2.8 3.8 85 1.0 WNW 11 13 6 7 1018.1 1018.1 8.0
02/05:30am 7.0 3.3 4.7 85 1.0 WNW 13 17 7 9 1018.0 1018.0 8.0
02/05:00am 6.2 3.2 4.3 88 0.8 WNW 9 15 5 8 1018.1 1018.1 8.0
02/04:30am 6.0 3.1 4.4 89 0.7 NW 9 11 5 6 1018.1 1018.1 8.0
02/04:00am 7.3 4.5 5.3 87 0.9 WNW 9 13 5 7 1018.0 1018.0 8.0
02/03:30am 8.1 5.0 5.4 83 1.2 WNW 11 17 6 9 1018.1 1018.1 8.0
02/03:00am 8.1 4.2 5.4 83 1.2 W 15 22 8 12 1018.1 1018.1 8.0
02/02:30am 7.7 4.6 5.5 86 1.0 WNW 11 15 6 8 1018.2 1018.2 8.0
02/02:00am 7.6 4.1 5.6 87 0.9 W 13 15 7 8 1018.5 1018.5 8.0
02/01:30am 7.6 4.9 5.8 88 0.8 WNW 9 11 5 6 1018.5 1018.5 8.0
02/01:00am 7.8 5.2 6.3 90 0.7 WNW 9 13 5 7 1018.7 1018.7 8.0
02/12:30am 7.9 5.4 6.6 91 0.6 WNW 9 11 5 6 1018.9 1018.9 8.0
02/12:00am 8.1 5.3 7.0 93 0.5 WNW 11 13 6 7 1019.1 1019.1 7.8
 
Date/Time
CST
Temp
°C
App
Temp
°C
Dew
Point
Rel
Hum
%
Delta-T
°C
Wind Press
QNH
hPa
Press
MSL
hPa
Rain
since 9 am
mm
Dir
 
Spd
km/h
Gust
km/h
Spd
kts
Gust
kts
01/11:30pm 8.1 6.1 7.0 93 0.5 W 7 9 4 5 1018.7 1018.7 7.8
01/11:00pm 8.2 5.4 7.1 93 0.5 WSW 11 15 6 8 1018.9 1018.9 7.4
01/10:30pm 8.0 7.3 7.1 94 0.4 CALM 0 0 0 0 1018.7 1018.7 6.8
01/10:25pm 8.1 7.5 7.2 94 0.4 CALM 0 0 0 0 1018.8 1018.8 6.6
01/10:12pm 8.0 7.3 7.1 94 0.4 CALM 0 0 0 0 1018.9 1018.9 6.2
01/10:10pm 8.0 7.3 7.1 94 0.4 CALM 0 0 0 0 1018.9 1018.9 6.2
01/10:00pm 8.1 7.4 7.0 93 0.5 CALM 0 0 0 0 1018.8 1018.8 5.8
01/09:57pm 8.1 7.5 7.2 94 0.4 CALM 0 0 0 0 1018.8 1018.8 5.8
01/09:30pm 8.2 5.9 7.3 94 0.4 SW 9 13 5 7 1018.1 1018.1 5.0
01/09:00pm 8.5 6.6 7.4 93 0.5 SSW 7 11 4 6 1018.2 1018.2 4.4
01/08:30pm 8.7 5.6 7.4 91 0.6 WSW 13 20 7 11 1017.9 1017.9 3.8
01/08:00pm 8.7 7.7 7.2 90 0.7 N 2 6 1 3 1018.0 1018.0 3.8
01/07:30pm 8.9 7.5 7.2 89 0.8 WSW 4 7 2 4 1017.9 1017.9 3.8
01/07:00pm 9.1 7.4 7.4 89 0.8 S 6 7 3 4 1017.7 1017.7 3.6
01/06:30pm 9.4 7.2 7.7 89 0.8 SSW 9 11 5 6 1017.4 1017.4 3.6
01/06:00pm 9.9 7.4 8.3 90 0.8 SW 11 11 6 6 1017.4 1017.4 3.6
01/05:30pm 10.0 8.5 8.4 90 0.8 W 6 11 3 6 1017.1 1017.1 3.6
01/05:00pm 10.3 8.7 8.2 87 1.0 NNE 6 7 3 4 1016.5 1016.5 3.6
01/04:30pm 10.3 8.7 8.2 87 1.0 SSE 6 7 3 4 1016.5 1016.5 3.6
01/04:00pm 10.2 8.0 7.7 84 1.2 S 9 11 5 6 1016.4 1016.4 3.6
01/03:36pm 10.5 8.1 8.5 87 1.0 SSW 11 15 6 8 1016.2 1016.2 3.6
01/03:30pm 10.5 8.5 8.5 87 1.0 SSW 9 13 5 7 1016.4 1016.4 3.6
01/03:22pm 10.4 8.3 8.1 86 1.1 SW 9 11 5 6 1016.8 1016.8 3.6
01/03:00pm 10.3 7.7 7.8 84 1.2 S 11 13 6 7 1016.4 1016.4 3.4
01/02:30pm 11.0 8.8 7.9 81 1.5 S 9 13 5 7 1016.1 1016.1 3.4
01/02:00pm 10.7 7.8 8.0 83 1.3 SSW 13 15 7 8 1016.6 1016.6 3.4
01/01:30pm 10.7 7.9 8.7 87 1.0 SW 13 17 7 9 1017.9 1017.9 3.4
01/01:14pm 10.5 8.1 8.7 89 0.9 SSW 11 17 6 9 1018.3 1018.3 3.2
01/01:00pm 10.4 8.4 8.8 90 0.8 SE 9 13 5 7 1016.3 1016.3 3.2
01/12:30pm 10.7 8.8 9.1 90 0.8 NW 9 11 5 6 1017.5 1017.5 2.4
01/12:00pm 10.7 8.4 9.1 90 0.8 SSW 11 19 6 10 1017.9 1017.9 1.8
01/11:30am 10.7 8.9 9.5 92 0.6 SSW 9 11 5 6 1017.2 1017.2 1.8
01/11:00am 10.6 8.7 9.2 91 0.7 SW 9 11 5 6 1017.6 1017.6 1.2
01/10:30am 10.7 9.3 9.7 93 0.5 S 7 11 4 6 1017.4 1017.4 0.8
01/10:00am 10.4 7.8 9.4 93 0.5 S 13 19 7 10 1017.8 1017.8 0.6
01/09:51am 10.4 7.4 9.4 93 0.5 SSW 15 20 8 11 1017.6 1017.6 0.4
01/09:30am 10.4 7.9 9.6 95 0.4 S 13 20 7 11 1017.0 1017.0 0.2
01/09:00am 10.7 8.3 9.9 95 0.4 S 13 19 7 10 1016.8 1016.8 6.2
01/08:53am 10.6 8.1 9.8 95 0.4 S 13 17 7 9 1016.9 1016.9 6.0
01/08:30am 10.4 8.3 9.8 96 0.3 SSW 11 15 6 8 1016.7 1016.7 5.8
01/08:14am 10.3 8.2 9.7 96 0.3 S 11 15 6 8 1016.4 1016.4 5.6
01/08:00am 10.3 7.8 9.7 96 0.3 SSW 13 17 7 9 1016.5 1016.5 4.8
01/07:52am 10.3 7.7 9.5 95 0.4 SSW 13 19 7 10 1016.4 1016.4 4.4
01/07:30am 10.4 7.2 9.8 96 0.3 SSW 17 26 9 14 1016.1 1016.1 3.0
01/07:10am 10.7 7.5 9.9 95 0.4 SSW 17 24 9 13 1015.3 1015.3 2.6
01/07:00am 10.6 7.7 9.8 95 0.4 SW 15 20 8 11 1015.1 1015.1 2.4
01/06:30am 10.6 6.4 9.6 93 0.5 SW 22 28 12 15 1014.6 1014.6 1.4
01/06:00am 10.9 6.0 10.1 95 0.4 SW 26 35 14 19 1014.2 1014.2 0.4
01/05:30am 11.1 6.2 10.1 94 0.5 SW 26 37 14 20 1013.8 1013.8 0.2
01/05:11am 11.3 5.7 10.1 92 0.6 SW 30 39 16 21 1013.5 1013.5 0.0
01/05:01am 11.5 5.3 9.9 90 0.8 SSW 33 44 18 24 1013.3 1013.3 0.0
01/05:00am 11.6 5.4 10.0 90 0.8 SSW 33 44 18 24 1013.2 1013.2 0.0
01/04:50am 12.6 8.9 10.3 86 1.2 WSW 20 43 11 23 1012.9 1012.9 0.0
01/04:30am 14.7 12.4 11.7 82 1.6 WNW 15 20 8 11 1011.9 1011.9 0.0
01/04:00am 15.3 11.9 11.4 77 2.1 WNW 20 28 11 15 1012.0 1012.0 0.0
01/03:30am 15.4 11.6 11.3 76 2.2 WNW 22 33 12 18 1011.6 1011.6 0.0
01/03:00am 15.2 11.9 11.5 78 2.0 WNW 20 32 11 17 1011.6 1011.6 0.0
01/02:30am 15.5 12.3 11.8 78 2.0 NW 20 30 11 16 1011.8 1011.8 0.0
01/02:00am 15.3 12.0 11.6 78 2.0 NW 20 30 11 16 1012.1 1012.1 0.0
01/01:30am 13.2 10.7 10.9 86 1.2 NNW 15 20 8 11 1012.0 1012.0 0.0
01/01:00am 13.2 11.0 10.7 85 1.3 N 13 17 7 9 1012.4 1012.4 0.0
01/12:30am 13.2 9.8 10.5 84 1.4 N 19 24 10 13 1012.6 1012.6 0.0
01/12:00am 13.2 9.1 10.1 81 1.6 N 22 28 12 15 1012.9 1012.9 0.0
 
Date/Time
CST
Temp
°C
App
Temp
°C
Dew
Point
Rel
Hum
%
Delta-T
°C
Wind Press
QNH
hPa
Press
MSL
hPa
Rain
since 9 am
mm
Dir
 
Spd
km/h
Gust
km/h
Spd
kts
Gust
kts
31/11:30pm 13.3 9.5 8.9 74 2.2 N 19 24 10 13 1013.1 1013.1 0.0
31/11:00pm 14.1 8.8 8.3 68 2.9 NNW 26 35 14 19 1013.5 1013.5 0.0
31/10:30pm 12.3 7.8 8.5 77 1.9 NNW 22 26 12 14 1013.6 1013.6 0.0
31/10:00pm 12.3 7.9 8.9 80 1.7 NNW 22 28 12 15 1013.8 1013.8 0.0
31/09:30pm 12.2 8.2 9.0 81 1.6 N 20 24 11 13 1014.1 1014.1 0.0
31/09:00pm 11.3 9.8 9.1 86 1.1 N 7 9 4 5 1014.6 1014.6 0.0
31/08:30pm 11.4 10.5 9.2 86 1.1 N 4 7 2 4 1014.7 1014.7 0.0
31/08:00pm 11.8 9.4 8.8 82 1.5 N 11 13 6 7 1014.7 1014.7 0.0
31/07:30pm 11.8 9.8 8.8 82 1.5 N 9 11 5 6 1014.6 1014.6 0.0
31/07:00pm 10.9 10.6 8.7 86 1.1 CALM 0 0 0 0 1014.9 1014.9 0.0
31/06:30pm 11.7 11.0 8.7 82 1.5 N 2 6 1 3 1015.1 1015.1 0.0
31/06:00pm 12.5 11.9 9.1 80 1.7 NNW 2 9 1 5 1014.9 1014.9 0.0
31/05:30pm 14.3 12.3 8.8 69 2.8 NW 9 11 5 6 1015.1 1015.1 0.0
31/05:00pm 15.2 12.4 8.5 64 3.4 NW 13 20 7 11 1015.2 1015.2 0.0
31/04:30pm 15.1 11.5 8.4 64 3.4 NNW 17 20 9 11 1015.4 1015.4 0.0
31/04:00pm 15.2 11.6 8.3 63 3.5 NNW 17 26 9 14 1015.3 1015.3 0.0
31/03:30pm 15.2 11.6 8.5 64 3.4 NNW 17 22 9 12 1015.8 1015.8 0.0
31/03:00pm 15.7 10.6 7.5 58 4.1 NNW 24 37 13 20 1015.9 1015.9 0.0
31/02:30pm 15.2 9.5 6.8 57 4.1 NNW 26 35 14 19 1016.5 1016.5 0.0
31/02:00pm 15.7 10.5 7.2 57 4.2 NNW 24 35 13 19 1016.7 1016.7 0.0
31/01:30pm 14.4 9.0 6.3 58 3.9 NNW 24 35 13 19 1017.3 1017.3 0.0
31/01:00pm 14.3 8.9 6.2 58 3.9 NNW 24 35 13 19 1017.9 1017.9 0.0
31/12:30pm 12.1 8.6 8.9 81 1.6 NE 17 22 9 12 1018.8 1018.8 0.0
31/12:00pm 11.2 7.0 8.1 81 1.5 NNE 20 24 11 13 1019.7 1019.8 0.0
31/11:30am 11.1 6.4 7.8 80 1.6 NNE 22 30 12 16 1020.5 1020.6 0.0
31/11:00am 11.1 6.9 8.2 82 1.4 NNE 20 26 11 14 1021.0 1021.1 0.0
31/10:30am 10.0 5.7 7.0 81 1.4 NNE 19 22 10 12 1021.5 1021.6 0.0
31/10:00am 9.6 6.4 7.0 84 1.2 NNE 13 19 7 10 1021.8 1021.9 0.0
31/09:30am 7.9 5.7 6.4 90 0.7 NNE 7 9 4 5 1022.2 1022.3 0.0
31/09:00am 4.8 2.7 3.8 93 0.4 N 4 6 2 3 1022.5 1022.6 2.4
31/08:30am 2.7 -0.1 1.9 94 0.3 N 6 7 3 4 1022.4 1022.5 2.4
31/08:00am 1.1 -2.6 0.0 92 0.4 N 9 9 5 5 1022.7 1022.8 2.4
31/07:30am 0.0 - - - - N 6 6 3 3 1022.6 1022.7 2.4
31/07:00am 0.3 - - - - NNW 7 7 4 4 1022.4 1022.5 2.4
31/06:30am 0.1 - - - - NW 6 7 3 4 1022.3 1022.4 2.4
31/06:00am -0.9 - - - - NW 7 9 4 5 1021.9 1022.0 2.4
31/05:30am 0.3 - - - - NW 2 6 1 3 1021.9 1022.0 2.4
31/05:00am 0.8 -2.9 -0.3 92 0.4 N 9 13 5 7 1021.9 1022.0 2.4
31/04:30am 2.0 -1.9 1.2 94 0.3 NNW 11 13 6 7 1021.8 1021.9 2.4
31/04:00am 2.2 0.5 1.9 98 0.1 CALM 0 0 0 0 1021.9 1022.0 2.4
31/03:30am 1.4 -0.9 0.3 92 0.4 W 2 7 1 4 1022.0 1022.1 2.4
31/03:00am 3.3 0.4 1.2 86 0.8 W 6 7 3 4 1022.3 1022.4 2.4
31/02:30am 3.5 1.5 2.5 93 0.4 SW 2 6 1 3 1022.3 1022.4 2.4
31/02:00am 3.0 1.2 1.4 89 0.6 CALM 0 0 0 0 1022.3 1022.4 2.4
31/01:30am 5.8 2.0 3.9 88 0.8 W 13 15 7 8 1022.4 1022.5 2.4
31/01:00am 6.6 3.0 4.8 88 0.8 W 13 17 7 9 1022.5 1022.6 2.4
31/12:30am 7.0 3.5 5.4 89 0.7 W 13 17 7 9 1022.6 1022.7 2.2
31/12:00am 6.5 2.9 5.1 91 0.6 WSW 13 13 7 7 1022.4 1022.5 2.2

Other Formats:

Comma delimited format used in spreadsheet applications
http://www.bom.gov.au/fwo/IDS60801/IDS60801.95818.axf

JavaScript Object Notation format (JSON) in row-major order
http://www.bom.gov.au/fwo/IDS60801/IDS60801.95818.json